John Murtha Johnstown Cambria County Airport
KJST : now visible

Airfield :











YOU CAN JOIN US ON...

 
LOGIN :

Register | Disclaimer

   EN    FR    IT 

 









Legend :    VFR   Marginal VFR   IFR   Intensive IFR   Very Intensive IFR
Visi :
Ceiling :
>= 8 km
>= 3000ft
5 to 8 km
1000 to 3000 ft
1500m to 5 km
500 to 1000 ft
800 to 1500m
200 to 500 ft
< 800m
< 200 ft
Symbols :   Thunderstorms  Fog  Heavy snow  Heavy precipitations  Wind > 20 kt






- Airport Elevation : 2284 ft
- IATA code : JST


KJST - John Murtha Johnstown Cambria County

CURRENT METAR :
  • 161854Z AUTO 27009KT 10SM OVC075 04/M06 A2999 RMK AO2 SLP173 T00441056 $

EXPIRED METARs :
  • 161754Z AUTO 28009KT 10SM OVC075 04/M06 A3001 RMK AO2 SLP181 T00441056 10050 20000 58014 $
  • 161654Z AUTO 26008KT 10SM OVC075 04/M06 A3003 RMK AO2 SLP189 T00391061 $

TAF KJST
Valid from the 16 at 18:00 until the 17 at 18:00 UTC


161800Z 1618/1718 24008KT P6SM OVC070
FM162000 26008G15KT P6SM VCSH OVC025
FM162300 27008KT 5SM -SHSN BR OVC012
FM170300 28007KT P6SM OVC010
FM171500 VRB02KT P6SM OVC140



MET'MAP, your aeronautical weather chart ! - Copyright ORBIFLY December 2007 - Disclaimer

ORBIFLY MET'MAP TEAM :

Programming & Development : Alexandra Zaïnal
Concept & original design : Baudouin d'Aumeries
Assistance for programming : Marc-Olivier Méhu
Technical & hardware support : Manuel Goepfert

Contact : metmap@orbifly.com




SOURCES & CREDITS :

   NOAA       Earth
Advisory